Time;durP1;ratioP1;P1;durP2;ratioP2;P2;SDS_P1;SDS_P2;PMS_P1;PMS_P2;Temp;Humidity;BMP_temperature;BMP_pressure;BME280_temperature;BME280_humidity;BME280_pressure;Samples;Min_cycle;Max_cycle;Signal;HPM_P1;HPM_P2
2021/10/23 00:01:31;;;;;;;4.30;1.40;;;;;;;9.75;43.85;98956.74;236671;1193;139564;-62
2021/10/23 00:06:34;;;;;;;7.10;1.60;;;;;;;9.71;43.82;98967.04;236563;1193;138362;-63
2021/10/23 00:11:37;;;;;;;7.00;1.80;;;;;;;9.68;43.78;98967.76;236675;1193;139116;-62
2021/10/23 00:16:40;;;;;;;4.20;1.60;;;;;;;9.63;43.92;98968.03;236665;1193;138971;-63
2021/10/23 00:21:43;;;;;;;3.70;1.70;;;;;;;9.61;44.04;98969.95;236746;1193;139075;-63
2021/10/23 00:26:46;;;;;;;6.00;1.80;;;;;;;9.57;44.10;98979.73;236656;1193;138408;-65
2021/10/23 00:31:50;;;;;;;8.40;2.40;;;;;;;9.55;44.31;98984.31;236641;1193;138772;-62
2021/10/23 00:36:53;;;;;;;5.50;2.20;;;;;;;9.52;44.66;98989.27;236405;1193;138596;-62
2021/10/23 00:41:56;;;;;;;6.60;2.10;;;;;;;9.53;44.68;98993.82;236503;1193;137982;-66
2021/10/23 00:47:04;;;;;;;7.10;2.00;;;;;;;9.53;44.83;98983.02;236957;1193;139730;-65
2021/10/23 00:52:08;;;;;;;5.80;1.90;;;;;;;9.49;44.70;98984.82;236915;1193;138469;-64
2021/10/23 00:57:11;;;;;;;9.50;2.00;;;;;;;9.44;44.90;98986.69;236667;1191;138390;-59
2021/10/23 01:02:14;;;;;;;7.40;2.00;;;;;;;9.42;44.97;98996.23;236654;1193;138241;-60
2021/10/23 01:07:18;;;;;;;9.00;2.40;;;;;;;9.39;45.08;99013.74;236705;1193;139473;-62
2021/10/23 01:12:21;;;;;;;7.60;2.60;;;;;;;9.35;44.99;99018.58;236755;1187;138498;-62
2021/10/23 01:17:24;;;;;;;8.30;2.10;;;;;;;9.33;45.29;99021.52;236951;1193;138814;-63
2021/10/23 01:22:28;;;;;;;8.90;2.10;;;;;;;9.32;45.26;99032.92;236490;1193;138054;-62
2021/10/23 01:27:32;;;;;;;7.60;2.40;;;;;;;9.31;45.39;99041.66;236591;1193;138663;-62
2021/10/23 01:32:35;;;;;;;8.80;2.40;;;;;;;9.30;45.69;99048.24;236312;1193;138082;-60
2021/10/23 01:37:43;;;;;;;4.80;2.20;;;;;;;9.27;45.58;99050.00;236550;1193;138136;-64
2021/10/23 01:42:47;;;;;;;6.00;2.20;;;;;;;9.26;45.83;99062.43;236552;1193;138673;-60
2021/10/23 01:47:50;;;;;;;7.20;2.50;;;;;;;9.24;45.99;99063.95;236569;1193;138482;-64
2021/10/23 01:52:55;;;;;;;7.20;2.40;;;;;;;9.26;46.26;99069.52;236757;1193;138998;-63
2021/10/23 01:57:59;;;;;;;6.50;2.50;;;;;;;9.24;46.18;99075.66;236680;1193;139842;-63
2021/10/23 02:03:02;;;;;;;7.10;2.20;;;;;;;9.20;46.40;99090.20;236438;1193;138509;-64
2021/10/23 02:08:05;;;;;;;7.40;1.90;;;;;;;9.19;46.42;99090.98;236694;1193;138464;-64
2021/10/23 02:13:08;;;;;;;7.80;2.20;;;;;;;9.18;46.59;99097.23;236593;1193;138739;-63
2021/10/23 02:18:11;;;;;;;7.00;2.20;;;;;;;9.16;46.70;99110.13;236319;1193;138756;-62
2021/10/23 02:23:14;;;;;;;9.20;2.10;;;;;;;9.11;47.13;99117.11;236752;1193;139123;-61
2021/10/23 02:28:17;;;;;;;6.50;2.30;;;;;;;9.03;46.72;99116.45;236939;1192;138864;-61
2021/10/23 02:33:20;;;;;;;7.90;2.60;;;;;;;8.98;47.19;99124.68;236859;1193;138621;-62
2021/10/23 02:38:24;;;;;;;8.80;2.40;;;;;;;8.97;47.77;99139.63;237023;1193;138479;-63
2021/10/23 02:43:27;;;;;;;7.10;2.20;;;;;;;8.97;47.83;99146.66;236683;1193;138595;-63
2021/10/23 02:48:31;;;;;;;8.40;2.20;;;;;;;8.98;48.12;99157.80;236329;1193;138506;-64
2021/10/23 02:53:34;;;;;;;5.30;1.90;;;;;;;8.98;48.46;99172.31;236792;1193;138253;-63
2021/10/23 02:58:37;;;;;;;6.20;2.40;;;;;;;8.98;48.71;99174.05;236451;1193;138517;-65
2021/10/23 03:03:40;;;;;;;5.90;2.30;;;;;;;8.96;48.85;99185.15;236645;1187;139078;-62
2021/10/23 03:08:45;;;;;;;6.10;2.10;;;;;;;8.91;48.85;99187.02;236673;1193;139130;-64
2021/10/23 03:13:48;;;;;;;8.00;2.20;;;;;;;8.86;49.10;99189.25;236656;1193;138956;-62
2021/10/23 03:18:51;;;;;;;7.20;2.10;;;;;;;8.80;49.29;99195.02;236300;1193;137659;-63
2021/10/23 03:23:54;;;;;;;4.80;1.70;;;;;;;8.73;49.53;99205.97;236498;1193;139190;-64
2021/10/23 03:28:57;;;;;;;8.50;2.60;;;;;;;8.66;49.63;99213.78;236971;1193;138495;-64
2021/10/23 03:34:00;;;;;;;6.40;2.20;;;;;;;8.60;49.88;99212.82;236704;1193;138216;-63
2021/10/23 03:39:04;;;;;;;8.10;2.20;;;;;;;8.53;49.75;99221.89;236762;1193;138734;-63
2021/10/23 03:44:07;;;;;;;5.60;2.00;;;;;;;8.48;50.28;99217.00;236501;1193;138839;-62
2021/10/23 03:49:10;;;;;;;7.10;2.00;;;;;;;8.45;50.41;99225.48;236678;1193;139529;-62
2021/10/23 03:54:15;;;;;;;5.20;2.10;;;;;;;8.40;50.60;99230.98;236425;1193;139015;-62
2021/10/23 03:59:18;;;;;;;4.80;2.10;;;;;;;8.33;50.64;99240.36;236701;1193;138088;-62
2021/10/23 04:04:22;;;;;;;6.40;2.10;;;;;;;8.28;50.88;99248.55;236677;1193;138605;-64
2021/10/23 04:09:25;;;;;;;6.00;2.30;;;;;;;8.24;50.91;99248.77;236767;1193;138934;-61
2021/10/23 04:14:30;;;;;;;5.20;2.10;;;;;;;8.16;51.30;99261.53;236681;1193;139209;-62
2021/10/23 04:19:33;;;;;;;4.80;1.80;;;;;;;8.09;51.68;99271.77;236545;1193;138725;-63
2021/10/23 04:24:36;;;;;;;7.30;2.40;;;;;;;8.04;51.74;99273.39;236557;1193;138741;-66
2021/10/23 04:29:39;;;;;;;7.80;2.00;;;;;;;7.99;52.14;99278.74;236848;1193;138656;-65
2021/10/23 04:34:43;;;;;;;11.40;1.80;;;;;;;7.93;52.32;99285.23;236219;1193;138750;-67
2021/10/23 04:39:46;;;;;;;6.90;1.70;;;;;;;7.86;52.49;99292.29;236620;1193;139325;-66
2021/10/23 04:44:50;;;;;;;5.20;1.70;;;;;;;7.82;52.75;99297.23;236623;1193;139302;-62
2021/10/23 04:49:53;;;;;;;7.00;1.90;;;;;;;7.80;52.79;99314.98;236708;1193;138482;-63
2021/10/23 04:54:55;;;;;;;5.60;1.50;;;;;;;7.77;53.00;99320.23;236249;1193;137965;-67
2021/10/23 04:59:58;;;;;;;6.20;1.90;;;;;;;7.73;53.16;99321.30;236927;1193;139837;-63
2021/10/23 05:05:02;;;;;;;6.30;1.70;;;;;;;7.71;53.20;99329.17;236520;1193;138359;-63
2021/10/23 05:10:05;;;;;;;5.50;1.50;;;;;;;7.70;53.56;99335.40;236958;1192;142318;-64
2021/10/23 05:15:08;;;;;;;6.90;1.60;;;;;;;7.72;53.65;99339.56;236762;1193;138243;-62
2021/10/23 05:20:12;;;;;;;8.20;1.80;;;;;;;7.70;53.48;99339.47;236353;1193;138659;-66
2021/10/23 05:25:15;;;;;;;6.60;1.60;;;;;;;7.66;53.80;99343.16;236536;1193;139106;-65
2021/10/23 05:30:18;;;;;;;10.00;1.80;;;;;;;7.65;53.98;99351.37;236688;1193;138392;-64
2021/10/23 05:35:21;;;;;;;8.60;2.10;;;;;;;7.67;54.06;99359.92;236536;1193;138795;-64
2021/10/23 05:40:25;;;;;;;6.10;2.00;;;;;;;7.69;53.81;99372.52;236337;1193;138625;-62
2021/10/23 05:45:28;;;;;;;5.40;1.70;;;;;;;7.67;53.67;99383.23;236136;1193;138645;-62
2021/10/23 05:50:31;;;;;;;8.10;2.30;;;;;;;7.66;53.98;99393.83;236794;1192;139166;-62
2021/10/23 05:55:34;;;;;;;9.40;2.00;;;;;;;7.64;54.03;99401.38;236752;1192;137991;-62
2021/10/23 06:00:38;;;;;;;6.40;1.90;;;;;;;7.61;53.89;99413.35;236739;1193;138610;-63
2021/10/23 06:05:41;;;;;;;6.50;1.90;;;;;;;7.62;53.92;99424.03;236618;1193;140943;-62
2021/10/23 06:10:44;;;;;;;4.90;2.20;;;;;;;7.63;54.08;99430.23;236654;1193;139011;-65
2021/10/23 06:15:47;;;;;;;8.40;2.30;;;;;;;7.64;54.19;99434.36;236321;1193;140509;-65
2021/10/23 06:20:51;;;;;;;9.30;2.70;;;;;;;7.64;54.08;99431.38;236663;1193;138947;-65
2021/10/23 06:25:54;;;;;;;8.40;2.40;;;;;;;7.65;54.44;99432.73;236277;1193;139667;-65
2021/10/23 06:30:57;;;;;;;97.40;56.20;;;;;;;7.66;54.45;99439.96;236805;1192;138904;-61
2021/10/23 06:36:01;;;;;;;9.00;4.50;;;;;;;7.81;54.77;99448.28;236198;1193;138634;-63
2021/10/23 06:41:04;;;;;;;8.10;3.10;;;;;;;7.93;54.52;99449.02;236770;1193;138214;-64
2021/10/23 06:46:07;;;;;;;77.50;44.70;;;;;;;7.94;54.37;99450.91;236114;1193;139557;-63
2021/10/23 06:51:11;;;;;;;10.80;3.80;;;;;;;8.06;54.83;99459.36;236410;1193;138616;-62
2021/10/23 06:56:18;;;;;;;9.40;3.30;;;;;;;8.10;54.42;99466.62;236596;1193;139150;-62
2021/10/23 07:01:22;;;;;;;10.90;3.00;;;;;;;8.11;54.45;99471.02;236649;1193;138929;-59
2021/10/23 07:06:26;;;;;;;11.60;3.00;;;;;;;8.14;54.25;99478.48;236743;1193;138458;-68
2021/10/23 07:11:29;;;;;;;8.70;2.60;;;;;;;8.19;54.22;99476.27;236724;1193;138848;-63
2021/10/23 07:16:32;;;;;;;12.70;2.40;;;;;;;8.26;54.27;99478.25;236224;1193;140152;-63
2021/10/23 07:21:35;;;;;;;7.80;1.90;;;;;;;8.36;54.29;99486.85;236640;1193;138528;-62
2021/10/23 07:26:38;;;;;;;82.60;54.60;;;;;;;8.40;54.09;99488.98;236630;1193;138552;-60
2021/10/23 07:31:41;;;;;;;9.80;2.60;;;;;;;8.52;54.24;99486.81;236510;1193;142236;-60
2021/10/23 07:36:45;;;;;;;8.20;2.50;;;;;;;8.61;54.08;99494.34;236113;1193;138051;-60
2021/10/23 07:41:48;;;;;;;9.00;2.60;;;;;;;8.68;54.09;99500.93;236609;1193;138251;-60
2021/10/23 07:46:51;;;;;;;7.60;2.70;;;;;;;8.79;53.78;99497.95;236628;1193;137683;-60
2021/10/23 07:51:54;;;;;;;63.40;32.10;;;;;;;8.89;53.65;99506.69;236659;1193;138339;-60
2021/10/23 07:56:59;;;;;;;13.30;5.70;;;;;;;9.03;53.75;99503.49;236702;1192;138565;-60
2021/10/23 08:02:03;;;;;;;12.60;2.90;;;;;;;9.17;53.40;99510.63;236719;1193;139057;-62
2021/10/23 08:07:06;;;;;;;7.60;2.30;;;;;;;9.19;53.01;99505.73;236480;1193;138738;-59
2021/10/23 08:12:10;;;;;;;7.60;2.30;;;;;;;9.22;53.16;99509.14;236033;1193;138274;-61
2021/10/23 08:17:13;;;;;;;13.10;2.40;;;;;;;9.24;53.05;99515.94;236796;1193;138266;-60
2021/10/23 08:22:16;;;;;;;29.00;15.90;;;;;;;9.27;53.01;99512.79;236470;1193;139518;-62
2021/10/23 08:27:19;;;;;;;10.70;3.00;;;;;;;9.32;52.91;99510.08;236703;1187;140189;-63
2021/10/23 08:32:22;;;;;;;7.60;2.20;;;;;;;9.36;52.59;99514.30;236820;1192;138023;-63
2021/10/23 08:37:26;;;;;;;7.90;2.10;;;;;;;9.43;52.97;99522.81;236874;1186;138357;-62
2021/10/23 08:42:30;;;;;;;8.90;2.30;;;;;;;9.55;52.93;99532.68;236862;1192;138171;-61
2021/10/23 08:47:37;;;;;;;10.20;2.20;;;;;;;9.64;52.68;99541.25;236712;1193;138005;-60
2021/10/23 08:52:43;;;;;;;9.30;1.70;;;;;;;9.70;52.48;99536.51;236491;1193;138964;-62
2021/10/23 08:57:46;;;;;;;8.60;2.00;;;;;;;9.70;52.31;99539.17;236519;1193;139142;-60
2021/10/23 09:02:50;;;;;;;142.20;81.00;;;;;;;9.72;52.48;99547.73;236885;1192;138522;-61
2021/10/23 09:07:53;;;;;;;8.60;2.80;;;;;;;9.90;52.52;99562.59;236646;1193;139579;-63
2021/10/23 09:13:06;;;;;;;23.30;5.50;;;;;;;10.01;52.38;99560.46;236661;1193;138627;-62
2021/10/23 09:18:10;;;;;;;10.20;2.60;;;;;;;10.08;51.93;99547.69;236629;1193;140289;-63
2021/10/23 09:23:18;;;;;;;9.70;2.20;;;;;;;10.05;51.45;99552.44;236905;1192;139157;-63
2021/10/23 09:28:28;;;;;;;8.10;2.50;;;;;;;10.01;51.36;99562.41;236754;1193;138169;-63
2021/10/23 09:33:33;;;;;;;9.80;2.70;;;;;;;10.04;51.43;99562.75;236652;1193;138422;-62
2021/10/23 09:38:36;;;;;;;8.10;2.30;;;;;;;10.11;51.53;99561.36;236647;1193;139442;-62
2021/10/23 09:43:39;;;;;;;9.20;2.10;;;;;;;10.23;51.44;99559.16;236469;1193;138880;-64
2021/10/23 09:48:45;;;;;;;7.60;2.30;;;;;;;10.34;51.13;99565.50;236398;1193;138851;-64
2021/10/23 09:53:55;;;;;;;7.90;2.20;;;;;;;10.40;51.10;99564.67;237146;1192;139416;-64
2021/10/23 09:59:02;;;;;;;10.90;2.40;;;;;;;10.45;50.54;99584.48;236685;1193;139032;-63
2021/10/23 10:04:06;;;;;;;12.40;2.80;;;;;;;10.35;50.45;99585.13;236705;1193;138792;-63
2021/10/23 10:09:20;;;;;;;10.80;2.70;;;;;;;10.29;50.42;99576.07;236945;1192;139551;-62
2021/10/23 10:14:27;;;;;;;10.00;2.90;;;;;;;10.28;50.58;99589.92;236628;1193;138348;-61
2021/10/23 10:19:30;;;;;;;11.80;2.50;;;;;;;10.29;50.56;99583.00;236640;1193;139082;-64
2021/10/23 10:24:38;;;;;;;13.20;2.70;;;;;;;10.34;50.39;99586.62;236582;1193;139120;-64
2021/10/23 10:29:57;;;;;;;6.20;2.30;;;;;;;10.28;50.27;99597.91;236722;1193;138494;-63
2021/10/23 10:45:56;;;;;;;10.20;2.60;;;;;;;10.25;50.30;99602.49;236578;1193;138416;-64
2021/10/23 10:51:14;;;;;;;10.90;3.00;;;;;;;10.33;50.34;99610.27;236674;1193;138696;-62
2021/10/23 10:56:18;;;;;;;12.80;3.10;;;;;;;10.43;50.43;99617.39;236641;1193;139401;-63
2021/10/23 11:01:25;;;;;;;9.80;2.60;;;;;;;10.48;50.02;99612.85;236637;1193;138856;-63
2021/10/23 11:11:57;;;;;;;12.20;2.90;;;;;;;10.43;49.98;99606.00;236781;1193;138747;-63
2021/10/23 11:17:03;;;;;;;12.80;2.70;;;;;;;10.40;50.00;99611.14;236812;1187;138774;-64
2021/10/23 11:22:27;;;;;;;;;;;;;;;10.37;49.99;99618.19;236592;1193;139113;-64
2021/10/23 11:27:40;;;;;;;20.20;3.20;;;;;;;10.31;50.00;99621.89;236716;1193;125090;-63
2021/10/23 11:32:46;;;;;;;6.90;2.90;;;;;;;10.18;50.49;99621.83;236645;1193;138891;-63
2021/10/23 11:37:53;;;;;;;11.90;3.00;;;;;;;10.09;51.03;99631.83;236666;1193;138449;-64
2021/10/23 11:42:56;;;;;;;7.70;2.80;;;;;;;9.94;51.57;99634.89;236288;1193;141188;-62
2021/10/23 11:48:13;;;;;;;7.30;2.80;;;;;;;9.84;51.93;99636.10;236759;1193;138466;-64
2021/10/23 11:53:19;;;;;;;12.70;3.40;;;;;;;9.72;51.93;99639.69;236825;1193;139454;-63
2021/10/23 11:58:26;;;;;;;9.90;3.20;;;;;;;9.65;52.37;99646.07;236838;1193;139081;-64
2021/10/23 12:03:36;;;;;;;10.60;3.40;;;;;;;9.62;52.99;99640.56;236588;1193;137996;-62
2021/10/23 12:08:39;;;;;;;8.20;2.90;;;;;;;9.65;53.30;99645.72;236664;1193;139153;-65
2021/10/23 12:14:04;;;;;;;10.50;3.50;;;;;;;9.69;53.31;99646.76;236627;1193;138860;-63
2021/10/23 12:19:21;;;;;;;9.50;3.10;;;;;;;9.70;53.07;99650.80;236595;1193;139289;-63
2021/10/23 12:24:30;;;;;;;6.90;2.10;;;;;;;9.65;53.32;99679.36;236639;1193;138756;-63
2021/10/23 12:29:38;;;;;;;3.70;1.00;;;;;;;9.49;53.12;99682.79;236739;1193;138503;-63
2021/10/23 12:34:50;;;;;;;4.40;0.90;;;;;;;9.09;52.91;99665.73;236564;1193;138285;-64
2021/10/23 12:40:09;;;;;;;2.30;0.90;;;;;;;8.78;53.55;99639.69;236676;1193;137834;-64
2021/10/23 12:45:20;;;;;;;3.80;1.80;;;;;;;8.62;54.20;99640.77;236495;1193;138765;-63
2021/10/23 12:50:24;;;;;;;6.50;2.00;;;;;;;8.58;54.87;99636.71;236692;1193;139975;-62
2021/10/23 12:55:28;;;;;;;6.30;2.00;;;;;;;8.60;55.32;99655.73;236748;1193;138745;-63
2021/10/23 13:00:32;;;;;;;7.20;2.10;;;;;;;8.62;55.65;99672.78;236768;1192;138824;-61
2021/10/23 13:05:35;;;;;;;6.00;2.40;;;;;;;8.67;55.96;99679.10;236783;1187;138415;-63
2021/10/23 13:10:38;;;;;;;8.90;2.30;;;;;;;8.70;56.14;99690.65;236590;1193;138881;-64
2021/10/23 13:15:41;;;;;;;14.90;2.70;;;;;;;8.72;56.45;99697.11;236584;1193;138030;-62
2021/10/23 13:20:44;;;;;;;8.80;2.90;;;;;;;8.72;56.64;99694.42;236599;1193;138793;-62
2021/10/23 13:25:47;;;;;;;8.60;2.40;;;;;;;8.77;56.95;99689.98;236504;1193;138116;-63
2021/10/23 13:30:51;;;;;;;7.90;2.40;;;;;;;8.82;56.84;99686.77;236673;1193;138517;-64
2021/10/23 13:35:54;;;;;;;6.70;2.40;;;;;;;8.87;56.96;99679.81;236655;1193;139292;-63
2021/10/23 13:40:57;;;;;;;5.10;1.70;;;;;;;8.93;56.91;99688.02;236588;1193;138443;-62
2021/10/23 13:46:01;;;;;;;7.40;1.90;;;;;;;8.98;56.50;99696.30;236562;1193;138590;-64
2021/10/23 13:51:04;;;;;;;7.80;2.40;;;;;;;9.04;56.58;99703.63;236626;1193;138527;-63
2021/10/23 13:56:08;;;;;;;6.90;1.90;;;;;;;9.11;56.54;99702.64;236607;1193;138717;-64
2021/10/23 14:01:13;;;;;;;6.00;2.40;;;;;;;9.16;56.29;99699.23;236785;1193;138408;-62
2021/10/23 14:06:16;;;;;;;;;;;;;;;9.19;56.26;99701.53;236691;1193;138363;-65
2021/10/23 14:11:20;;;;;;;7.00;2.70;;;;;;;9.22;56.43;99701.20;236878;1193;124742;-63
2021/10/23 14:16:23;;;;;;;9.20;2.80;;;;;;;9.24;56.04;99709.45;236625;1193;138522;-63
2021/10/23 14:21:26;;;;;;;8.30;3.60;;;;;;;9.20;56.04;99712.63;236640;1193;138218;-63
2021/10/23 14:26:29;;;;;;;6.40;2.60;;;;;;;9.19;56.20;99716.57;236549;1193;139040;-62
2021/10/23 14:31:34;;;;;;;7.80;2.70;;;;;;;9.21;56.04;99715.97;236769;1193;138058;-64
2021/10/23 14:36:37;;;;;;;9.40;2.80;;;;;;;9.17;55.64;99724.84;236686;1193;138020;-63
2021/10/23 14:41:40;;;;;;;5.50;2.40;;;;;;;9.15;55.75;99739.81;236789;1193;138528;-65
2021/10/23 14:46:43;;;;;;;8.00;2.40;;;;;;;9.14;55.61;99750.98;236689;1193;138963;-62
2021/10/23 14:51:46;;;;;;;6.90;2.50;;;;;;;9.12;55.61;99756.55;236605;1193;138022;-63
2021/10/23 14:56:49;;;;;;;8.00;2.90;;;;;;;9.10;55.42;99766.55;236631;1193;138723;-61
2021/10/23 15:01:53;;;;;;;6.60;2.80;;;;;;;9.07;55.55;99776.43;236569;1193;139150;-61
2021/10/23 15:06:56;;;;;;;7.10;2.40;;;;;;;9.03;55.76;99782.98;236544;1193;138326;-63
2021/10/23 15:11:59;;;;;;;8.00;2.80;;;;;;;8.99;55.75;99782.95;236759;1193;137905;-63
2021/10/23 15:17:02;;;;;;;9.80;3.20;;;;;;;8.96;55.83;99793.70;236643;1193;138321;-64
2021/10/23 15:22:06;;;;;;;9.30;2.90;;;;;;;8.92;56.01;99804.70;236955;1193;138145;-64
2021/10/23 15:27:09;;;;;;;6.80;3.00;;;;;;;8.91;55.90;99812.35;236648;1193;138442;-65
2021/10/23 15:32:13;;;;;;;7.20;2.70;;;;;;;8.88;56.09;99821.51;236747;1193;138476;-64
2021/10/23 15:37:18;;;;;;;10.80;2.80;;;;;;;8.89;56.19;99840.40;236788;1193;138209;-64
2021/10/23 15:42:21;;;;;;;11.80;3.50;;;;;;;8.90;56.40;99859.83;236614;1193;138870;-64
2021/10/23 15:47:24;;;;;;;10.40;3.70;;;;;;;8.92;56.46;99864.68;236538;1193;138285;-62
2021/10/23 15:52:27;;;;;;;9.60;3.90;;;;;;;8.90;56.42;99862.63;236620;1193;138109;-62
2021/10/23 15:57:30;;;;;;;7.90;3.90;;;;;;;8.89;56.48;99876.84;236567;1193;138252;-64
2021/10/23 16:02:33;;;;;;;9.70;4.50;;;;;;;8.88;56.66;99907.35;236613;1193;139469;-64
2021/10/23 16:07:37;;;;;;;12.80;4.00;;;;;;;8.92;57.16;99913.36;236568;1193;138185;-63
2021/10/23 16:12:40;;;;;;;10.00;3.40;;;;;;;8.77;56.95;99920.35;236661;1193;139321;-62
2021/10/23 16:17:43;;;;;;;6.50;3.10;;;;;;;8.57;57.06;99922.57;236760;1193;138381;-63
2021/10/23 16:22:46;;;;;;;10.50;3.60;;;;;;;8.45;57.39;99922.83;236587;1193;138785;-63
2021/10/23 16:27:49;;;;;;;10.60;3.40;;;;;;;8.36;57.43;99923.70;236618;1193;138183;-63
2021/10/23 16:32:53;;;;;;;7.50;2.90;;;;;;;8.24;57.63;99917.98;236517;1195;138480;-63
2021/10/23 16:37:56;;;;;;;9.00;3.10;;;;;;;8.17;57.70;99917.73;236592;1193;139075;-63
2021/10/23 16:42:59;;;;;;;8.70;2.80;;;;;;;8.13;57.71;99926.18;236545;1193;139298;-63
2021/10/23 16:48:20;;;;;;;6.50;2.30;;;;;;;8.09;57.90;99933.74;236641;1193;138464;-61
2021/10/23 16:53:23;;;;;;;7.80;2.50;;;;;;;8.07;58.08;99939.81;236673;1193;140848;-61
2021/10/23 16:58:27;;;;;;;8.10;2.60;;;;;;;8.04;58.01;99953.00;236461;1194;138842;-63
2021/10/23 17:03:30;;;;;;;6.90;2.60;;;;;;;8.00;58.34;99954.92;236637;1193;138982;-63
2021/10/23 17:08:33;;;;;;;8.70;3.00;;;;;;;7.97;58.30;99965.30;236615;1193;138008;-63
2021/10/23 17:13:36;;;;;;;11.50;3.20;;;;;;;7.91;58.55;99967.09;236580;1193;138461;-63
2021/10/23 17:18:49;;;;;;;10.00;3.30;;;;;;;7.87;58.65;99975.02;236583;1193;138198;-62
2021/10/23 17:23:52;;;;;;;8.40;3.40;;;;;;;7.82;58.86;99983.48;236709;1193;138575;-62
2021/10/23 17:28:56;;;;;;;10.00;4.00;;;;;;;7.78;59.01;99989.98;236711;1193;139557;-62
2021/10/23 17:34:01;;;;;;;11.30;4.20;;;;;;;7.79;59.06;99998.27;236586;1193;139703;-62
2021/10/23 17:39:05;;;;;;;10.30;4.30;;;;;;;7.79;59.37;100009.20;236627;1193;138451;-62
2021/10/23 17:44:10;;;;;;;;;;;;;;;7.76;59.46;100015.85;236605;1193;138613;-62
2021/10/23 17:49:14;;;;;;;11.00;5.20;;;;;;;7.73;59.67;100025.16;236652;1193;127763;-63
2021/10/23 17:54:17;;;;;;;11.90;5.80;;;;;;;7.69;59.81;100029.37;236615;1193;138943;-63
2021/10/23 17:59:20;;;;;;;11.20;5.90;;;;;;;7.61;59.82;100033.32;236575;1193;138955;-63
2021/10/23 18:04:23;;;;;;;12.90;7.00;;;;;;;7.55;60.05;100040.95;236841;1193;139020;-62
2021/10/23 18:09:26;;;;;;;18.30;8.10;;;;;;;7.50;60.12;100043.77;236574;1193;139599;-62
2021/10/23 18:14:31;;;;;;;19.60;8.40;;;;;;;7.47;60.57;100043.17;236657;1193;139619;-62
2021/10/23 18:19:34;;;;;;;22.00;9.50;;;;;;;7.47;60.66;100047.91;236253;1193;139162;-62
2021/10/23 18:24:38;;;;;;;23.00;9.80;;;;;;;7.49;60.58;100048.91;236575;1193;141791;-62
2021/10/23 18:29:44;;;;;;;22.50;10.60;;;;;;;7.50;60.68;100058.41;236732;1193;139258;-62
2021/10/23 18:34:47;;;;;;;24.50;11.00;;;;;;;7.53;60.73;100060.27;236557;1193;139146;-62
2021/10/23 18:39:50;;;;;;;26.40;11.30;;;;;;;7.51;60.65;100062.63;236896;1193;139393;-63
2021/10/23 18:44:53;;;;;;;32.00;12.60;;;;;;;7.48;60.88;100057.43;236512;1193;139204;-63
2021/10/23 18:49:57;;;;;;;26.90;12.60;;;;;;;7.47;61.25;100060.48;236730;1192;138730;-62
2021/10/23 18:55:00;;;;;;;27.10;13.00;;;;;;;7.44;61.01;100070.11;236915;1193;138600;-63
2021/10/23 19:00:06;;;;;;;30.20;13.40;;;;;;;7.35;60.93;100076.02;236717;1194;139523;-64
2021/10/23 19:05:11;;;;;;;28.70;14.00;;;;;;;7.26;61.26;100082.50;236679;1193;139110;-63
2021/10/23 19:10:15;;;;;;;27.90;13.80;;;;;;;7.23;61.15;100089.30;236718;1193;139544;-62
2021/10/23 19:15:19;;;;;;;29.30;13.80;;;;;;;7.23;61.50;100092.83;236630;1193;139505;-61
2021/10/23 19:20:22;;;;;;;28.90;13.40;;;;;;;7.22;61.32;100102.92;236651;1193;138788;-63
2021/10/23 19:25:25;;;;;;;29.90;14.00;;;;;;;7.22;61.62;100112.64;236702;1193;140800;-63
2021/10/23 19:30:28;;;;;;;26.10;13.60;;;;;;;7.15;61.55;100118.13;236607;1193;139316;-63
2021/10/23 19:35:32;;;;;;;29.50;13.80;;;;;;;7.08;61.75;100128.56;236631;1193;139677;-64
2021/10/23 19:40:35;;;;;;;35.60;13.60;;;;;;;7.05;61.77;100133.63;236595;1193;139633;-63
2021/10/23 19:45:38;;;;;;;23.30;10.80;;;;;;;7.03;62.05;100137.39;236606;1193;138922;-63
2021/10/23 19:50:42;;;;;;;28.90;11.90;;;;;;;7.08;61.92;100144.28;236587;1193;139610;-63
2021/10/23 19:55:45;;;;;;;26.10;12.30;;;;;;;7.11;62.12;100150.89;236514;1194;139508;-63
2021/10/23 20:00:49;;;;;;;31.70;13.10;;;;;;;7.16;62.05;100159.75;236426;1194;138850;-63
2021/10/23 20:05:53;;;;;;;25.00;12.60;;;;;;;7.15;62.05;100168.27;236671;1193;138758;-62
2021/10/23 20:10:57;;;;;;;25.70;12.90;;;;;;;7.13;61.92;100175.38;236578;1193;138942;-62
2021/10/23 20:16:00;;;;;;;24.50;12.50;;;;;;;7.10;62.14;100182.16;236531;1193;138556;-64
2021/10/23 20:21:04;;;;;;;27.30;12.80;;;;;;;7.07;62.03;100188.95;236545;1194;139164;-62
2021/10/23 20:26:07;;;;;;;27.00;13.00;;;;;;;7.06;62.16;100197.80;236542;1194;141117;-62
2021/10/23 20:31:10;;;;;;;27.00;12.90;;;;;;;7.05;61.89;100205.09;236590;1193;139753;-63
2021/10/23 20:36:13;;;;;;;25.70;12.30;;;;;;;7.03;61.74;100206.01;236873;1193;139608;-63
2021/10/23 20:41:18;;;;;;;28.70;12.50;;;;;;;7.00;62.05;100213.17;236319;1193;139063;-63
2021/10/23 20:46:21;;;;;;;28.90;13.60;;;;;;;6.99;62.21;100214.61;236535;1193;138929;-63
2021/10/23 20:51:25;;;;;;;30.20;14.10;;;;;;;6.96;62.16;100218.91;236474;1193;139630;-62
2021/10/23 20:56:29;;;;;;;27.70;13.10;;;;;;;6.94;62.25;100218.11;236546;1193;138864;-62
2021/10/23 21:01:32;;;;;;;29.30;13.60;;;;;;;6.92;62.26;100220.64;236633;1193;139794;-61
2021/10/23 21:06:35;;;;;;;31.20;14.30;;;;;;;6.90;62.33;100222.98;236587;1193;138656;-62
2021/10/23 21:11:38;;;;;;;30.10;13.40;;;;;;;6.93;62.42;100228.02;236757;1193;139781;-62
2021/10/23 21:16:41;;;;;;;29.90;14.30;;;;;;;6.95;62.32;100234.31;236548;1193;139944;-63
2021/10/23 21:21:44;;;;;;;29.30;15.20;;;;;;;6.92;62.30;100239.14;236560;1193;139518;-63
2021/10/23 21:26:47;;;;;;;32.10;15.10;;;;;;;6.87;62.36;100248.27;236546;1193;139082;-63
2021/10/23 21:31:51;;;;;;;31.50;15.30;;;;;;;6.81;62.58;100254.44;236857;1192;139647;-60
2021/10/23 21:36:54;;;;;;;30.20;16.20;;;;;;;6.76;62.26;100257.40;236845;1185;139034;-60
2021/10/23 21:41:57;;;;;;;38.60;16.90;;;;;;;6.69;62.38;100263.58;236860;1192;139301;-63
2021/10/23 21:47:04;;;;;;;33.80;17.20;;;;;;;6.60;62.57;100266.80;236518;1192;140598;-64
2021/10/23 21:52:07;;;;;;;33.70;16.60;;;;;;;6.55;62.57;100273.98;236562;1193;139804;-61
2021/10/23 21:57:10;;;;;;;32.80;16.30;;;;;;;6.53;62.75;100280.39;236517;1193;138819;-60
2021/10/23 22:02:14;;;;;;;38.40;18.10;;;;;;;6.54;62.74;100286.36;236591;1193;139520;-62
2021/10/23 22:07:17;;;;;;;45.20;18.80;;;;;;;6.51;62.72;100289.98;236566;1193;139866;-61
2021/10/23 22:12:20;;;;;;;37.30;18.10;;;;;;;6.46;62.79;100286.23;236756;1193;139579;-62
2021/10/23 22:17:23;;;;;;;32.50;17.90;;;;;;;6.38;62.81;100289.75;236692;1193;139300;-61
2021/10/23 22:22:32;;;;;;;36.40;18.00;;;;;;;6.28;62.88;100292.65;236623;1193;139028;-62
2021/10/23 22:27:35;;;;;;;39.00;18.20;;;;;;;6.24;62.87;100300.14;236706;1193;140060;-62
2021/10/23 22:32:39;;;;;;;35.10;17.90;;;;;;;6.27;63.29;100303.25;236627;1193;139743;-62
2021/10/23 22:37:41;;;;;;;37.10;18.20;;;;;;;6.26;63.26;100303.27;236669;1193;139336;-62
2021/10/23 22:42:45;;;;;;;35.70;17.00;;;;;;;6.24;63.27;100307.54;236668;1193;139476;-62
2021/10/23 22:47:48;;;;;;;37.20;17.60;;;;;;;6.23;63.42;100309.17;236794;1193;140235;-62
2021/10/23 22:52:52;;;;;;;39.20;18.50;;;;;;;6.21;63.43;100314.33;236617;1193;139067;-62
2021/10/23 22:57:55;;;;;;;33.70;17.40;;;;;;;6.19;63.52;100311.54;236161;1193;139227;-63
2021/10/23 23:03:00;;;;;;;40.10;17.00;;;;;;;6.15;63.52;100321.34;236679;1193;139624;-60
2021/10/23 23:08:03;;;;;;;35.80;16.30;;;;;;;6.17;63.65;100323.23;236549;1193;139542;-63
2021/10/23 23:13:07;;;;;;;32.60;16.90;;;;;;;6.19;63.58;100323.89;236536;1193;140215;-63
2021/10/23 23:18:10;;;;;;;33.00;16.90;;;;;;;6.22;63.74;100325.22;236587;1193;139471;-63
2021/10/23 23:23:15;;;;;;;36.70;16.80;;;;;;;6.21;63.58;100325.79;236654;1193;139889;-63
2021/10/23 23:28:18;;;;;;;37.20;17.40;;;;;;;6.18;63.40;100329.55;236597;1193;138968;-62
2021/10/23 23:33:22;;;;;;;34.10;17.30;;;;;;;6.14;63.79;100330.15;236600;1193;139716;-63